sensor_id;sensor_type;location;lat;lon;timestamp;pressure;altitude;pressure_sealevel;temperature;humidity
49377;BME280;35253;34.688;33.040;2023-03-16T00:02:10;100651.03;;;13.90;100.00
49377;BME280;35253;34.688;33.040;2023-03-16T00:04:36;100646.50;;;13.91;100.00
49377;BME280;35253;34.688;33.040;2023-03-16T00:07:03;100630.59;;;14.00;100.00
49377;BME280;35253;34.688;33.040;2023-03-16T00:09:28;100642.22;;;13.88;100.00
49377;BME280;35253;34.688;33.040;2023-03-16T00:12:01;100646.53;;;13.78;100.00
49377;BME280;35253;34.688;33.040;2023-03-16T00:14:30;100631.50;;;13.88;100.00
49377;BME280;35253;34.688;33.040;2023-03-16T00:16:56;100628.09;;;13.86;100.00
49377;BME280;35253;34.688;33.040;2023-03-16T00:19:21;100633.66;;;13.83;100.00
49377;BME280;35253;34.688;33.040;2023-03-16T00:21:50;100628.44;;;13.82;100.00
49377;BME280;35253;34.688;33.040;2023-03-16T00:24:15;100627.28;;;13.61;100.00
49377;BME280;35253;34.688;33.040;2023-03-16T00:26:42;100625.84;;;13.44;100.00
49377;BME280;35253;34.688;33.040;2023-03-16T00:29:07;100617.81;;;13.44;100.00
49377;BME280;35253;34.688;33.040;2023-03-16T00:31:34;100615.78;;;13.35;100.00
49377;BME280;35253;34.688;33.040;2023-03-16T00:33:59;100617.25;;;13.51;100.00
49377;BME280;35253;34.688;33.040;2023-03-16T00:36:27;100609.78;;;13.31;100.00
49377;BME280;35253;34.688;33.040;2023-03-16T00:38:52;100613.88;;;13.24;100.00
49377;BME280;35253;34.688;33.040;2023-03-16T00:41:18;100608.50;;;13.37;100.00
49377;BME280;35253;34.688;33.040;2023-03-16T00:43:47;100618.59;;;13.33;100.00
49377;BME280;35253;34.688;33.040;2023-03-16T00:46:14;100610.66;;;13.32;100.00
49377;BME280;35253;34.688;33.040;2023-03-16T00:48:40;100602.31;;;13.24;100.00
49377;BME280;35253;34.688;33.040;2023-03-16T00:51:07;100601.88;;;13.30;100.00
49377;BME280;35253;34.688;33.040;2023-03-16T00:53:33;100599.94;;;13.32;100.00
49377;BME280;35253;34.688;33.040;2023-03-16T00:55:59;100602.75;;;13.18;100.00
49377;BME280;35253;34.688;33.040;2023-03-16T00:58:28;100613.44;;;13.30;100.00
49377;BME280;35253;34.688;33.040;2023-03-16T01:00:54;100607.69;;;13.24;100.00
49377;BME280;35253;34.688;33.040;2023-03-16T01:03:21;100613.44;;;13.18;100.00
49377;BME280;35253;34.688;33.040;2023-03-16T01:05:46;100603.59;;;13.18;100.00
49377;BME280;35253;34.688;33.040;2023-03-16T01:08:13;100605.59;;;13.40;100.00
49377;BME280;35253;34.688;33.040;2023-03-16T01:10:38;100615.47;;;13.27;100.00
49377;BME280;35253;34.688;33.040;2023-03-16T01:13:05;100613.97;;;13.23;100.00
49377;BME280;35253;34.688;33.040;2023-03-16T01:15:32;100617.72;;;13.07;100.00
49377;BME280;35253;34.688;33.040;2023-03-16T01:17:59;100612.56;;;13.04;100.00
49377;BME280;35253;34.688;33.040;2023-03-16T01:20:24;100620.00;;;13.14;100.00
49377;BME280;35253;34.688;33.040;2023-03-16T01:22:50;100619.13;;;13.13;100.00
49377;BME280;35253;34.688;33.040;2023-03-16T01:25:16;100622.44;;;13.17;100.00
49377;BME280;35253;34.688;33.040;2023-03-16T01:27:42;100621.63;;;13.16;100.00
49377;BME280;35253;34.688;33.040;2023-03-16T01:30:08;100621.56;;;13.03;100.00
49377;BME280;35253;34.688;33.040;2023-03-16T01:32:36;100623.81;;;12.97;100.00
49377;BME280;35253;34.688;33.040;2023-03-16T01:35:02;100629.31;;;13.21;100.00
49377;BME280;35253;34.688;33.040;2023-03-16T01:37:29;100627.56;;;13.45;100.00
49377;BME280;35253;34.688;33.040;2023-03-16T01:39:54;100629.25;;;13.59;100.00
49377;BME280;35253;34.688;33.040;2023-03-16T01:42:19;100630.09;;;13.59;100.00
49377;BME280;35253;34.688;33.040;2023-03-16T01:44:55;100628.78;;;13.77;100.00
49377;BME280;35253;34.688;33.040;2023-03-16T01:47:21;100624.03;;;13.81;100.00
49377;BME280;35253;34.688;33.040;2023-03-16T01:49:47;100623.22;;;13.91;100.00
49377;BME280;35253;34.688;33.040;2023-03-16T01:52:16;100631.75;;;13.85;100.00
49377;BME280;35253;34.688;33.040;2023-03-16T01:54:50;100635.16;;;13.87;100.00
49377;BME280;35253;34.688;33.040;2023-03-16T01:57:20;100643.72;;;13.92;100.00
49377;BME280;35253;34.688;33.040;2023-03-16T01:59:51;100636.44;;;13.94;100.00
49377;BME280;35253;34.688;33.040;2023-03-16T02:02:18;100642.22;;;13.88;100.00
49377;BME280;35253;34.688;33.040;2023-03-16T02:04:48;100645.16;;;13.85;100.00
49377;BME280;35253;34.688;33.040;2023-03-16T02:07:17;100632.59;;;13.86;100.00
49377;BME280;35253;34.688;33.040;2023-03-16T02:09:44;100632.56;;;13.98;100.00
49377;BME280;35253;34.688;33.040;2023-03-16T02:12:10;100637.97;;;13.86;100.00
49377;BME280;35253;34.688;33.040;2023-03-16T02:14:42;100633.00;;;13.92;100.00
49377;BME280;35253;34.688;33.040;2023-03-16T02:17:08;100628.38;;;13.94;100.00
49377;BME280;35253;34.688;33.040;2023-03-16T02:22:11;100627.25;;;13.86;100.00
49377;BME280;35253;34.688;33.040;2023-03-16T02:24:38;100630.03;;;13.84;100.00
49377;BME280;35253;34.688;33.040;2023-03-16T02:27:04;100630.03;;;13.84;100.00
49377;BME280;35253;34.688;33.040;2023-03-16T02:32:16;100632.69;;;13.84;100.00
49377;BME280;35253;34.688;33.040;2023-03-16T02:34:43;100620.34;;;13.94;100.00
49377;BME280;35253;34.688;33.040;2023-03-16T02:37:08;100630.84;;;13.97;100.00
49377;BME280;35253;34.688;33.040;2023-03-16T02:39:34;100623.75;;;13.96;100.00
49377;BME280;35253;34.688;33.040;2023-03-16T02:41:59;100628.16;;;13.97;100.00
49377;BME280;35253;34.688;33.040;2023-03-16T02:44:35;100623.22;;;13.91;100.00
49377;BME280;35253;34.688;33.040;2023-03-16T02:47:02;100625.03;;;14.04;100.00
49377;BME280;35253;34.688;33.040;2023-03-16T02:49:34;100626.00;;;14.03;100.00
49377;BME280;35253;34.688;33.040;2023-03-16T02:52:01;100634.28;;;13.99;100.00
49377;BME280;35253;34.688;33.040;2023-03-16T02:54:26;100633.28;;;14.00;100.00
49377;BME280;35253;34.688;33.040;2023-03-16T02:56:52;100639.63;;;13.99;100.00
49377;BME280;35253;34.688;33.040;2023-03-16T02:59:17;100644.34;;;13.96;100.00
49377;BME280;35253;34.688;33.040;2023-03-16T03:01:43;100641.31;;;14.00;100.00
49377;BME280;35253;34.688;33.040;2023-03-16T03:04:08;100647.34;;;13.91;100.00
49377;BME280;35253;34.688;33.040;2023-03-16T03:06:34;100640.47;;;14.00;100.00
49377;BME280;35253;34.688;33.040;2023-03-16T03:08:59;100642.31;;;13.99;100.00
49377;BME280;35253;34.688;33.040;2023-03-16T03:11:26;100644.75;;;14.03;100.00
49377;BME280;35253;34.688;33.040;2023-03-16T03:13:52;100643.03;;;14.02;100.00
49377;BME280;35253;34.688;33.040;2023-03-16T03:16:18;100644.28;;;14.09;100.00
49377;BME280;35253;34.688;33.040;2023-03-16T03:18:43;100649.44;;;14.12;100.00
49377;BME280;35253;34.688;33.040;2023-03-16T03:21:09;100650.06;;;14.15;100.00
49377;BME280;35253;34.688;33.040;2023-03-16T03:23:34;100647.53;;;14.01;100.00
49377;BME280;35253;34.688;33.040;2023-03-16T03:26:00;100655.91;;;13.96;100.00
49377;BME280;35253;34.688;33.040;2023-03-16T03:28:27;100666.88;;;13.93;100.00
49377;BME280;35253;34.688;33.040;2023-03-16T03:30:52;100663.00;;;13.97;100.00
49377;BME280;35253;34.688;33.040;2023-03-16T03:33:18;100663.34;;;13.93;100.00
49377;BME280;35253;34.688;33.040;2023-03-16T03:35:43;100658.94;;;13.92;100.00
49377;BME280;35253;34.688;33.040;2023-03-16T03:38:09;100666.44;;;13.87;100.00
49377;BME280;35253;34.688;33.040;2023-03-16T03:40:35;100672.75;;;13.98;100.00
49377;BME280;35253;34.688;33.040;2023-03-16T03:43:01;100661.75;;;13.90;100.00
49377;BME280;35253;34.688;33.040;2023-03-16T03:45:26;100669.22;;;13.98;100.00
49377;BME280;35253;34.688;33.040;2023-03-16T03:47:52;100678.66;;;13.91;100.00
49377;BME280;35253;34.688;33.040;2023-03-16T03:50:19;100681.47;;;13.89;100.00
49377;BME280;35253;34.688;33.040;2023-03-16T03:52:45;100674.38;;;13.88;100.00
49377;BME280;35253;34.688;33.040;2023-03-16T03:55:10;100679.88;;;13.74;100.00
49377;BME280;35253;34.688;33.040;2023-03-16T03:57:36;100677.22;;;13.74;100.00
49377;BME280;35253;34.688;33.040;2023-03-16T04:00:02;100677.97;;;13.76;100.00
49377;BME280;35253;34.688;33.040;2023-03-16T04:02:32;100679.75;;;13.88;100.00
49377;BME280;35253;34.688;33.040;2023-03-16T04:04:57;100680.41;;;13.79;100.00
49377;BME280;35253;34.688;33.040;2023-03-16T04:07:22;100674.72;;;13.84;100.00
49377;BME280;35253;34.688;33.040;2023-03-16T04:09:48;100678.56;;;13.92;100.00
49377;BME280;35253;34.688;33.040;2023-03-16T04:12:13;100677.84;;;13.90;100.00
49377;BME280;35253;34.688;33.040;2023-03-16T04:14:39;100675.84;;;14.05;100.00
49377;BME280;35253;34.688;33.040;2023-03-16T04:17:04;100677.44;;;14.08;100.00
49377;BME280;35253;34.688;33.040;2023-03-16T04:19:30;100681.81;;;14.09;100.00
49377;BME280;35253;34.688;33.040;2023-03-16T04:21:55;100680.50;;;14.14;100.00
49377;BME280;35253;34.688;33.040;2023-03-16T04:24:21;100680.50;;;14.14;100.00
49377;BME280;35253;34.688;33.040;2023-03-16T04:26:46;100688.00;;;14.22;100.00
49377;BME280;35253;34.688;33.040;2023-03-16T04:29:12;100692.28;;;14.24;100.00
49377;BME280;35253;34.688;33.040;2023-03-16T04:31:38;100699.56;;;14.22;100.00
49377;BME280;35253;34.688;33.040;2023-03-16T04:34:04;100692.03;;;14.40;100.00
49377;BME280;35253;34.688;33.040;2023-03-16T04:36:30;100692.81;;;14.53;100.00
49377;BME280;35253;34.688;33.040;2023-03-16T04:38:57;100699.44;;;14.60;100.00
49377;BME280;35253;34.688;33.040;2023-03-16T04:41:22;100697.91;;;14.69;100.00
49377;BME280;35253;34.688;33.040;2023-03-16T04:43:48;100697.31;;;14.87;100.00
49377;BME280;35253;34.688;33.040;2023-03-16T04:46:13;100699.56;;;14.94;100.00
49377;BME280;35253;34.688;33.040;2023-03-16T04:48:39;100703.50;;;15.12;100.00
49377;BME280;35253;34.688;33.040;2023-03-16T04:51:04;100698.84;;;15.14;100.00
49377;BME280;35253;34.688;33.040;2023-03-16T04:53:30;100702.44;;;15.25;100.00
49377;BME280;35253;34.688;33.040;2023-03-16T04:55:56;100702.03;;;15.19;100.00
49377;BME280;35253;34.688;33.040;2023-03-16T04:58:22;100710.09;;;15.19;100.00
49377;BME280;35253;34.688;33.040;2023-03-16T05:00:47;100715.22;;;15.11;100.00
49377;BME280;35253;34.688;33.040;2023-03-16T05:03:13;100721.09;;;15.05;100.00
49377;BME280;35253;34.688;33.040;2023-03-16T05:05:38;100722.31;;;15.12;100.00
49377;BME280;35253;34.688;33.040;2023-03-16T05:08:04;100715.38;;;15.20;100.00
49377;BME280;35253;34.688;33.040;2023-03-16T05:10:30;100724.78;;;15.26;100.00
49377;BME280;35253;34.688;33.040;2023-03-16T05:12:56;100730.66;;;15.42;100.00
49377;BME280;35253;34.688;33.040;2023-03-16T05:15:21;100726.41;;;15.40;100.00
49377;BME280;35253;34.688;33.040;2023-03-16T05:17:47;100727.63;;;15.47;100.00
49377;BME280;35253;34.688;33.040;2023-03-16T05:20:12;100732.91;;;15.59;100.00
49377;BME280;35253;34.688;33.040;2023-03-16T05:22:39;100728.88;;;15.54;100.00
49377;BME280;35253;34.688;33.040;2023-03-16T05:25:05;100738.31;;;15.70;100.00
49377;BME280;35253;34.688;33.040;2023-03-16T05:27:30;100739.50;;;15.77;100.00
49377;BME280;35253;34.688;33.040;2023-03-16T05:29:56;100748.78;;;15.85;100.00
49377;BME280;35253;34.688;33.040;2023-03-16T05:32:21;100740.75;;;15.73;100.00
49377;BME280;35253;34.688;33.040;2023-03-16T05:34:47;100739.50;;;15.89;100.00
49377;BME280;35253;34.688;33.040;2023-03-16T05:37:12;100742.19;;;15.89;100.00
49377;BME280;35253;34.688;33.040;2023-03-16T05:39:38;100749.78;;;15.95;100.00
49377;BME280;35253;34.688;33.040;2023-03-16T05:42:03;100745.88;;;15.99;100.00
49377;BME280;35253;34.688;33.040;2023-03-16T05:44:30;100753.19;;;16.08;100.00
49377;BME280;35253;34.688;33.040;2023-03-16T05:46:56;100755.03;;;16.18;100.00
49377;BME280;35253;34.688;33.040;2023-03-16T05:49:23;100752.19;;;16.20;100.00
49377;BME280;35253;34.688;33.040;2023-03-16T05:51:49;100755.25;;;16.27;100.00
49377;BME280;35253;34.688;33.040;2023-03-16T05:54:15;100757.31;;;16.34;100.00
49377;BME280;35253;34.688;33.040;2023-03-16T05:56:40;100757.31;;;16.45;100.00
49377;BME280;35253;34.688;33.040;2023-03-16T05:59:06;100748.75;;;16.40;100.00
49377;BME280;35253;34.688;33.040;2023-03-16T06:01:31;100758.00;;;16.47;100.00
49377;BME280;35253;34.688;33.040;2023-03-16T06:03:58;100753.75;;;16.45;100.00
49377;BME280;35253;34.688;33.040;2023-03-16T06:06:24;100760.00;;;16.34;100.00
49377;BME280;35253;34.688;33.040;2023-03-16T06:08:49;100757.78;;;16.39;100.00
49377;BME280;35253;34.688;33.040;2023-03-16T06:11:15;100765.59;;;16.42;100.00
49377;BME280;35253;34.688;33.040;2023-03-16T06:13:41;100758.59;;;16.51;100.00
49377;BME280;35253;34.688;33.040;2023-03-16T06:16:06;100765.56;;;16.64;100.00
49377;BME280;35253;34.688;33.040;2023-03-16T06:18:33;100761.41;;;16.72;100.00
49377;BME280;35253;34.688;33.040;2023-03-16T06:20:59;100767.50;;;16.74;100.00
49377;BME280;35253;34.688;33.040;2023-03-16T06:23:24;100769.50;;;16.60;100.00
49377;BME280;35253;34.688;33.040;2023-03-16T06:25:50;100776.34;;;16.64;100.00
49377;BME280;35253;34.688;33.040;2023-03-16T06:28:18;100760.16;;;16.76;100.00
49377;BME280;35253;34.688;33.040;2023-03-16T06:30:44;100760.28;;;16.74;100.00
49377;BME280;35253;34.688;33.040;2023-03-16T06:33:09;100767.50;;;16.74;100.00
49377;BME280;35253;34.688;33.040;2023-03-16T06:35:35;100766.94;;;16.91;100.00
49377;BME280;35253;34.688;33.040;2023-03-16T06:38:00;100770.88;;;16.87;100.00
49377;BME280;35253;34.688;33.040;2023-03-16T06:40:25;100771.84;;;16.97;100.00
49377;BME280;35253;34.688;33.040;2023-03-16T06:42:51;100775.22;;;16.99;100.00
49377;BME280;35253;34.688;33.040;2023-03-16T06:45:16;100770.47;;;17.02;100.00
49377;BME280;35253;34.688;33.040;2023-03-16T06:47:45;100764.50;;;17.20;100.00
49377;BME280;35253;34.688;33.040;2023-03-16T06:50:11;100772.97;;;17.36;100.00
49377;BME280;35253;34.688;33.040;2023-03-16T06:52:36;100777.03;;;17.30;100.00
49377;BME280;35253;34.688;33.040;2023-03-16T06:55:02;100770.47;;;17.23;100.00
49377;BME280;35253;34.688;33.040;2023-03-16T06:57:27;100775.28;;;17.20;100.00
49377;BME280;35253;34.688;33.040;2023-03-16T06:59:53;100779.25;;;17.25;100.00
49377;BME280;35253;34.688;33.040;2023-03-16T07:02:18;100772.13;;;17.35;100.00
49377;BME280;35253;34.688;33.040;2023-03-16T07:04:44;100775.78;;;17.34;100.00
49377;BME280;35253;34.688;33.040;2023-03-16T07:07:09;100775.41;;;17.18;100.00
49377;BME280;35253;34.688;33.040;2023-03-16T07:09:36;100773.03;;;17.45;100.00
49377;BME280;35253;34.688;33.040;2023-03-16T07:12:01;100781.31;;;17.53;100.00
49377;BME280;35253;34.688;33.040;2023-03-16T07:14:27;100789.91;;;17.59;100.00
49377;BME280;35253;34.688;33.040;2023-03-16T07:16:53;100780.38;;;17.43;100.00
49377;BME280;35253;34.688;33.040;2023-03-16T07:19:18;100788.44;;;17.54;100.00
49377;BME280;35253;34.688;33.040;2023-03-16T07:21:44;100781.72;;;17.70;100.00
49377;BME280;35253;34.688;33.040;2023-03-16T07:24:10;100773.63;;;17.70;100.00
49377;BME280;35253;34.688;33.040;2023-03-16T07:26:37;100784.94;;;17.84;100.00
49377;BME280;35253;34.688;33.040;2023-03-16T07:29:02;100778.09;;;17.80;100.00
49377;BME280;35253;34.688;33.040;2023-03-16T07:31:30;100776.16;;;17.92;100.00
49377;BME280;35253;34.688;33.040;2023-03-16T07:33:57;100780.22;;;18.07;100.00
49377;BME280;35253;34.688;33.040;2023-03-16T07:36:22;100785.66;;;18.26;100.00
49377;BME280;35253;34.688;33.040;2023-03-16T07:38:48;100782.72;;;18.29;100.00
49377;BME280;35253;34.688;33.040;2023-03-16T07:41:13;100787.13;;;18.00;100.00
49377;BME280;35253;34.688;33.040;2023-03-16T07:43:39;100794.78;;;18.25;100.00
49377;BME280;35253;34.688;33.040;2023-03-16T07:46:04;100791.41;;;18.02;100.00
49377;BME280;35253;34.688;33.040;2023-03-16T07:48:30;100782.72;;;17.99;100.00
49377;BME280;35253;34.688;33.040;2023-03-16T07:50:56;100793.16;;;17.83;100.00
49377;BME280;35253;34.688;33.040;2023-03-16T07:53:22;100783.88;;;18.06;100.00
49377;BME280;35253;34.688;33.040;2023-03-16T07:55:47;100790.72;;;18.10;100.00
49377;BME280;35253;34.688;33.040;2023-03-16T07:58:13;100798.97;;;18.18;100.00
49377;BME280;35253;34.688;33.040;2023-03-16T08:00:38;100787.56;;;18.05;100.00
49377;BME280;35253;34.688;33.040;2023-03-16T08:03:04;100789.34;;;18.16;100.00
49377;BME280;35253;34.688;33.040;2023-03-16T08:05:30;100790.44;;;18.13;100.00
49377;BME280;35253;34.688;33.040;2023-03-16T08:07:58;100788.22;;;18.28;100.00
49377;BME280;35253;34.688;33.040;2023-03-16T08:10:25;100801.38;;;18.52;100.00
49377;BME280;35253;34.688;33.040;2023-03-16T08:12:50;100805.41;;;18.27;100.00
49377;BME280;35253;34.688;33.040;2023-03-16T08:15:16;100796.13;;;18.10;100.00
49377;BME280;35253;34.688;33.040;2023-03-16T08:17:41;100809.38;;;18.23;100.00
49377;BME280;35253;34.688;33.040;2023-03-16T08:20:07;100802.31;;;18.01;100.00
49377;BME280;35253;34.688;33.040;2023-03-16T08:22:35;100798.66;;;18.02;100.00
49377;BME280;35253;34.688;33.040;2023-03-16T08:25:01;100808.47;;;18.13;100.00
49377;BME280;35253;34.688;33.040;2023-03-16T08:27:27;100801.22;;;18.13;100.00
49377;BME280;35253;34.688;33.040;2023-03-16T08:29:53;100801.16;;;18.24;100.00
49377;BME280;35253;34.688;33.040;2023-03-16T08:32:19;100795.25;;;18.50;100.00
49377;BME280;35253;34.688;33.040;2023-03-16T08:34:44;100800.94;;;18.46;100.00
49377;BME280;35253;34.688;33.040;2023-03-16T08:37:11;100801.72;;;18.68;100.00
49377;BME280;35253;34.688;33.040;2023-03-16T08:39:41;100800.41;;;18.53;100.00
49377;BME280;35253;34.688;33.040;2023-03-16T08:42:08;100805.72;;;18.73;100.00
49377;BME280;35253;34.688;33.040;2023-03-16T08:44:33;100802.88;;;18.84;100.00
49377;BME280;35253;34.688;33.040;2023-03-16T08:47:00;100802.72;;;18.76;100.00
49377;BME280;35253;34.688;33.040;2023-03-16T08:49:26;100802.59;;;18.78;100.00
49377;BME280;35253;34.688;33.040;2023-03-16T08:51:52;100800.56;;;18.61;100.00
49377;BME280;35253;34.688;33.040;2023-03-16T08:54:18;100806.81;;;18.61;100.00
49377;BME280;35253;34.688;33.040;2023-03-16T08:56:43;100798.56;;;18.53;100.00
49377;BME280;35253;34.688;33.040;2023-03-16T08:59:09;100805.81;;;18.62;100.00
49377;BME280;35253;34.688;33.040;2023-03-16T09:01:35;100806.53;;;18.55;100.00
49377;BME280;35253;34.688;33.040;2023-03-16T09:04:00;100822.75;;;18.74;100.00
49377;BME280;35253;34.688;33.040;2023-03-16T09:06:27;100823.06;;;18.40;100.00
49377;BME280;35253;34.688;33.040;2023-03-16T09:08:53;100826.88;;;18.68;100.00
49377;BME280;35253;34.688;33.040;2023-03-16T09:11:20;100812.56;;;19.06;100.00
49377;BME280;35253;34.688;33.040;2023-03-16T09:13:46;100824.25;;;19.45;100.00
49377;BME280;35253;34.688;33.040;2023-03-16T09:16:12;100816.81;;;19.18;100.00
49377;BME280;35253;34.688;33.040;2023-03-16T09:18:39;100826.09;;;19.16;100.00
49377;BME280;35253;34.688;33.040;2023-03-16T09:21:06;100816.41;;;19.13;100.00
49377;BME280;35253;34.688;33.040;2023-03-16T09:23:33;100823.38;;;19.25;100.00
49377;BME280;35253;34.688;33.040;2023-03-16T09:25:59;100817.69;;;19.09;100.00
49377;BME280;35253;34.688;33.040;2023-03-16T09:28:25;100827.50;;;19.20;100.00
49377;BME280;35253;34.688;33.040;2023-03-16T09:30:54;100817.25;;;18.85;100.00
49377;BME280;35253;34.688;33.040;2023-03-16T09:33:21;100827.06;;;18.96;100.00
49377;BME280;35253;34.688;33.040;2023-03-16T09:35:47;100832.19;;;18.89;100.00
49377;BME280;35253;34.688;33.040;2023-03-16T09:38:13;100836.44;;;18.91;100.00
49377;BME280;35253;34.688;33.040;2023-03-16T09:40:39;100831.34;;;19.17;100.00
49377;BME280;35253;34.688;33.040;2023-03-16T09:43:22;100831.34;;;19.08;100.00
49377;BME280;35253;34.688;33.040;2023-03-16T09:45:58;100838.75;;;19.15;100.00
49377;BME280;35253;34.688;33.040;2023-03-16T09:48:27;100835.88;;;18.98;100.00
49377;BME280;35253;34.688;33.040;2023-03-16T09:50:56;100836.16;;;18.85;100.00
49377;BME280;35253;34.688;33.040;2023-03-16T09:53:27;100826.47;;;18.82;100.00
49377;BME280;35253;34.688;33.040;2023-03-16T09:55:59;100822.78;;;19.22;100.00
49377;BME280;35253;34.688;33.040;2023-03-16T09:58:26;100823.09;;;19.28;100.00
49377;BME280;35253;34.688;33.040;2023-03-16T10:05:59;100835.00;;;18.78;100.00
49377;BME280;35253;34.688;33.040;2023-03-16T10:16:24;100837.31;;;19.11;100.00
49377;BME280;35253;34.688;33.040;2023-03-16T10:18:56;100827.22;;;19.32;100.00
49377;BME280;35253;34.688;33.040;2023-03-16T10:21:23;100819.41;;;19.29;100.00
49377;BME280;35253;34.688;33.040;2023-03-16T10:23:49;100819.53;;;19.38;100.00
49377;BME280;35253;34.688;33.040;2023-03-16T10:26:19;100812.56;;;19.45;100.00
49377;BME280;35253;34.688;33.040;2023-03-16T10:28:47;100808.88;;;19.55;100.00
49377;BME280;35253;34.688;33.040;2023-03-16T10:31:20;100820.53;;;19.56;100.00
49377;BME280;35253;34.688;33.040;2023-03-16T10:33:47;100811.69;;;19.73;100.00
49377;BME280;35253;34.688;33.040;2023-03-16T10:36:24;100822.41;;;19.46;100.00
49377;BME280;35253;34.688;33.040;2023-03-16T10:38:56;100805.88;;;19.39;100.00
49377;BME280;35253;34.688;33.040;2023-03-16T10:41:27;100811.72;;;19.44;100.00
49377;BME280;35253;34.688;33.040;2023-03-16T10:44:00;100802.34;;;19.48;100.00
49377;BME280;35253;34.688;33.040;2023-03-16T10:46:56;100812.16;;;19.49;100.00
49377;BME280;35253;34.688;33.040;2023-03-16T10:49:22;100808.84;;;19.36;100.00
49377;BME280;35253;34.688;33.040;2023-03-16T10:51:49;100813.41;;;19.35;100.00
49377;BME280;35253;34.688;33.040;2023-03-16T10:54:26;100810.31;;;19.30;100.00
49377;BME280;35253;34.688;33.040;2023-03-16T10:56:52;100801.75;;;19.25;100.00
49377;BME280;35253;34.688;33.040;2023-03-16T10:59:25;100801.50;;;19.48;100.00
49377;BME280;35253;34.688;33.040;2023-03-16T11:01:51;100802.31;;;19.39;100.00
49377;BME280;35253;34.688;33.040;2023-03-16T11:04:18;100802.31;;;19.39;100.00
49377;BME280;35253;34.688;33.040;2023-03-16T11:06:54;100801.47;;;19.28;100.00
49377;BME280;35253;34.688;33.040;2023-03-16T11:09:25;100794.06;;;19.11;100.00
49377;BME280;35253;34.688;33.040;2023-03-16T11:11:51;100794.09;;;19.21;100.00
49377;BME280;35253;34.688;33.040;2023-03-16T11:14:18;100790.06;;;18.96;100.00
49377;BME280;35253;34.688;33.040;2023-03-16T11:19:32;100803.16;;;18.72;100.00
49377;BME280;35253;34.688;33.040;2023-03-16T11:22:03;100794.06;;;19.11;100.00
49377;BME280;35253;34.688;33.040;2023-03-16T11:24:36;100792.06;;;19.32;100.00
49377;BME280;35253;34.688;33.040;2023-03-16T11:27:09;100784.41;;;19.47;100.00
49377;BME280;35253;34.688;33.040;2023-03-16T11:29:45;100785.09;;;19.01;100.00
49377;BME280;35253;34.688;33.040;2023-03-16T11:32:21;100786.25;;;18.99;100.00
49377;BME280;35253;34.688;33.040;2023-03-16T11:34:50;100789.75;;;18.61;100.00
49377;BME280;35253;34.688;33.040;2023-03-16T11:42:28;100797.78;;;19.10;100.00
49377;BME280;35253;34.688;33.040;2023-03-16T11:44:57;100795.94;;;18.82;100.00
49377;BME280;35253;34.688;33.040;2023-03-16T12:00:30;100789.53;;;18.33;100.00
49377;BME280;35253;34.688;33.040;2023-03-16T12:05:34;100786.25;;;18.39;100.00
49377;BME280;35253;34.688;33.040;2023-03-16T12:08:23;100795.84;;;18.53;100.00
49377;BME280;35253;34.688;33.040;2023-03-16T12:13:35;100787.69;;;18.34;100.00
49377;BME280;35253;34.688;33.040;2023-03-16T12:16:48;100788.34;;;18.26;100.00
49377;BME280;35253;34.688;33.040;2023-03-16T12:19:00;100776.03;;;18.33;100.00
49377;BME280;35253;34.688;33.040;2023-03-16T12:21:29;100786.78;;;18.54;100.00
49377;BME280;35253;34.688;33.040;2023-03-16T12:24:05;100786.94;;;18.72;100.00
49377;BME280;35253;34.688;33.040;2023-03-16T12:26:37;100782.97;;;18.76;100.00
49377;BME280;35253;34.688;33.040;2023-03-16T12:31:49;100771.03;;;18.88;100.00
49377;BME280;35253;34.688;33.040;2023-03-16T12:34:28;100781.97;;;18.96;100.00
49377;BME280;35253;34.688;33.040;2023-03-16T12:37:05;100778.28;;;19.16;100.00
49377;BME280;35253;34.688;33.040;2023-03-16T12:44:48;100771.03;;;18.88;100.00
49377;BME280;35253;34.688;33.040;2023-03-16T12:47:36;100775.84;;;19.13;100.00
49377;BME280;35253;34.688;33.040;2023-03-16T12:50:08;100778.84;;;19.20;100.00
49377;BME280;35253;34.688;33.040;2023-03-16T12:52:42;100791.38;;;19.11;100.00
49377;BME280;35253;34.688;33.040;2023-03-16T12:55:12;100783.84;;;19.15;100.00
49377;BME280;35253;34.688;33.040;2023-03-16T12:57:39;100784.97;;;18.93;100.00
49377;BME280;35253;34.688;33.040;2023-03-16T13:00:05;100784.41;;;18.89;100.00
49377;BME280;35253;34.688;33.040;2023-03-16T13:02:34;100787.25;;;19.07;100.00
49377;BME280;35253;34.688;33.040;2023-03-16T13:05:08;100787.53;;;18.85;100.00
49377;BME280;35253;34.688;33.040;2023-03-16T13:07:33;100795.47;;;18.77;100.00
49377;BME280;35253;34.688;33.040;2023-03-16T13:10:09;100791.50;;;19.00;100.00
49377;BME280;35253;34.688;33.040;2023-03-16T13:12:37;100786.50;;;18.67;100.00
49377;BME280;35253;34.688;33.040;2023-03-16T13:20:32;100782.69;;;18.88;100.00
49377;BME280;35253;34.688;33.040;2023-03-16T13:26:02;100785.25;;;18.80;100.00
49377;BME280;35253;34.688;33.040;2023-03-16T13:28:29;100781.00;;;18.78;100.00
49377;BME280;35253;34.688;33.040;2023-03-16T13:30:55;100785.22;;;18.71;100.00
49377;BME280;35253;34.688;33.040;2023-03-16T13:33:25;100781.53;;;18.72;100.00